Time;durP1;ratioP1;P1;durP2;ratioP2;P2;SDS_P1;SDS_P2;PMS_P1;PMS_P2;Temp;Humidity;BMP_temperature;BMP_pressure;BME280_temperature;BME280_humidity;BME280_pressure;Samples;Min_cycle;Max_cycle;Signal;HPM_P1;HPM_P2
2021/03/20 09:11:05;;;;;;;7.07;6.38;;;9.40;52.30;;;;;;5049563;27;81572;-92
2021/03/20 09:17:12;;;;;;;10.80;7.50;;;9.30;49.30;;;;;;5010348;27;80798;-93
2021/03/20 09:19:49;;;;;;;9.93;8.45;;;9.00;49.90;;;;;;5047222;27;82222;-90
2021/03/20 09:22:17;;;;;;;7.57;6.68;;;9.00;50.30;;;;;;5048302;27;81895;-85
2021/03/20 09:24:51;;;;;;;7.00;6.30;;;9.00;51.00;;;;;;5041174;28;80706;-91
2021/03/20 09:27:54;;;;;;;7.20;6.50;;;9.10;51.50;;;;;;5033495;28;82864;-90
2021/03/20 09:30:37;;;;;;;8.93;6.60;;;9.30;51.50;;;;;;5033284;28;82174;-88
2021/03/20 09:33:25;;;;;;;7.28;6.68;;;9.50;51.50;;;;;;5035348;28;82490;-89
2021/03/20 09:35:54;;;;;;;7.70;6.65;;;9.70;50.70;;;;;;5019602;28;82116;-91
2021/03/20 09:38:35;;;;;;;6.93;6.25;;;9.60;51.10;;;;;;5023037;28;83459;-89
2021/03/20 09:41:28;;;;;;;7.07;6.38;;;9.60;50.00;;;;;;5024633;28;83465;-90
2021/03/20 09:44:03;;;;;;;5.63;5.22;;;12.00;49.80;;;;;;5027660;28;81784;-90
2021/03/20 09:46:47;;;;;;;5.97;5.47;;;14.20;44.40;;;;;;5025053;28;82018;-90
2021/03/20 09:49:21;;;;;;;6.18;5.68;;;15.30;39.70;;;;;;5029452;28;82100;-90
2021/03/20 09:54:28;;;;;;;5.68;5.05;;;17.60;36.40;;;;;;5031585;28;81655;-91
2021/03/20 09:57:11;;;;;;;6.60;5.93;;;18.30;33.80;;;;;;5034681;28;81525;-91
2021/03/20 09:59:37;;;;;;;6.05;5.55;;;18.60;34.10;;;;;;5039721;28;83546;-92
2021/03/20 10:02:20;;;;;;;6.00;5.50;;;19.00;33.70;;;;;;5024764;28;84988;-90
2021/03/20 10:04:58;;;;;;;5.78;5.28;;;17.70;32.30;;;;;;5037454;28;84816;-91
2021/03/20 10:07:24;;;;;;;5.88;5.35;;;16.00;34.70;;;;;;5035223;28;81265;-89
2021/03/20 10:09:49;;;;;;;6.60;5.90;;;15.20;35.00;;;;;;5017530;28;81567;-89
2021/03/20 10:12:22;;;;;;;5.70;4.82;;;14.50;35.20;;;;;;5018296;28;82481;-89
2021/03/20 10:15:16;;;;;;;5.40;4.90;;;13.70;35.40;;;;;;5017856;28;82328;-91
2021/03/20 10:18:11;;;;;;;5.00;4.60;;;14.00;35.60;;;;;;5036122;28;83901;-89
2021/03/20 10:20:51;;;;;;;5.18;4.78;;;15.00;35.00;;;;;;5034338;28;81817;-89
2021/03/20 10:23:39;;;;;;;4.63;4.25;;;15.20;33.40;;;;;;5023522;28;83530;-89
2021/03/20 10:26:17;;;;;;;5.30;4.90;;;16.50;33.70;;;;;;5002375;28;83536;-89
2021/03/20 10:28:46;;;;;;;5.20;4.80;;;19.30;30.40;;;;;;5012089;28;81240;-92
2021/03/20 10:31:14;;;;;;;5.30;4.80;;;20.40;29.20;;;;;;5008829;28;83917;-90
2021/03/20 10:33:42;;;;;;;5.00;4.60;;;21.70;28.30;;;;;;5006894;28;85827;-90
2021/03/20 10:36:14;;;;;;;5.07;4.68;;;22.50;27.60;;;;;;5010637;28;86082;-91
2021/03/20 10:38:42;;;;;;;5.10;4.65;;;22.00;26.50;;;;;;4999374;28;85021;-91
2021/03/20 10:41:15;;;;;;;4.80;4.40;;;21.00;27.30;;;;;;5011091;28;82827;-92
2021/03/20 10:43:45;;;;;;;5.38;4.95;;;20.60;27.90;;;;;;5011478;28;85008;-93
2021/03/20 10:46:29;;;;;;;5.00;4.60;;;21.60;27.40;;;;;;5007955;28;84401;-91
2021/03/20 10:48:57;;;;;;;5.72;5.22;;;23.10;26.20;;;;;;5016637;28;81356;-90
2021/03/20 10:51:39;;;;;;;5.30;4.90;;;24.20;25.90;;;;;;5005961;28;81687;-92
2021/03/20 10:54:33;;;;;;;5.00;4.60;;;25.90;25.20;;;;;;5001473;28;83208;-92
2021/03/20 10:57:09;;;;;;;4.82;4.50;;;25.90;24.00;;;;;;5006737;28;83146;-91
2021/03/20 10:59:40;;;;;;;5.13;4.75;;;26.70;24.10;;;;;;5008905;28;81291;-93
2021/03/20 11:02:34;;;;;;;5.88;5.40;;;27.60;24.00;;;;;;5015903;28;81581;-92
2021/03/20 11:05:13;;;;;;;5.60;5.10;;;28.20;22.90;;;;;;5023561;28;86388;-92
2021/03/20 11:07:56;;;;;;;5.10;4.80;;;28.70;22.60;;;;;;5019865;28;84871;-94
2021/03/20 11:10:40;;;;;;;5.55;5.15;;;28.10;22.30;;;;;;5011534;28;85366;-93
2021/03/20 11:13:16;;;;;;;5.00;4.70;;;29.00;22.60;;;;;;5002027;28;83165;-92
2021/03/20 11:16:07;;;;;;;5.53;5.13;;;29.90;22.90;;;;;;5018122;28;83303;-92
2021/03/20 11:18:41;;;;;;;5.22;4.72;;;30.20;21.90;;;;;;5013228;28;81408;-93
2021/03/20 11:21:24;;;;;;;5.38;4.97;;;28.20;22.30;;;;;;5022636;28;82906;-92
2021/03/20 11:23:56;;;;;;;5.57;5.13;;;25.60;22.60;;;;;;4994445;28;81394;-91
2021/03/20 11:26:21;;;;;;;5.13;4.72;;;24.50;23.60;;;;;;5028430;28;84828;-93
2021/03/20 11:28:48;;;;;;;5.05;4.75;;;25.10;23.60;;;;;;5028930;28;81905;-92
2021/03/20 11:31:15;;;;;;;5.03;4.63;;;25.00;23.60;;;;;;5016758;28;80787;-93
2021/03/20 11:33:42;;;;;;;5.53;5.13;;;25.50;23.50;;;;;;5009346;28;82727;-87
2021/03/20 11:36:22;;;;;;;5.20;4.80;;;26.50;23.20;;;;;;5013826;28;82373;-90
2021/03/20 11:38:48;;;;;;;5.40;4.90;;;27.90;22.50;;;;;;5011561;28;83713;-89
2021/03/20 11:41:23;;;;;;;5.13;4.82;;;28.80;22.80;;;;;;5013260;28;81067;-90
2021/03/20 11:44:01;;;;;;;4.80;4.50;;;29.90;21.80;;;;;;5007997;28;81650;-91
2021/03/20 11:46:37;;;;;;;4.90;4.50;;;29.80;21.10;;;;;;5015758;28;83575;-90
2021/03/20 11:49:18;;;;;;;4.60;4.22;;;30.20;21.10;;;;;;5011233;28;81912;-90
2021/03/20 11:51:47;;;;;;;4.50;4.20;;;30.60;21.10;;;;;;5010535;28;81569;-91
2021/03/20 11:54:32;;;;;;;5.78;5.38;;;31.00;21.60;;;;;;5019876;28;82037;-89
2021/03/20 11:57:13;;;;;;;5.40;5.00;;;31.50;20.40;;;;;;5022331;28;81597;-90
2021/03/20 11:59:45;;;;;;;4.60;4.28;;;31.20;21.10;;;;;;5012236;28;81729;-90
2021/03/20 12:02:34;;;;;;;4.63;4.32;;;31.40;21.00;;;;;;5025547;28;81075;-89
2021/03/20 12:05:21;;;;;;;5.03;4.72;;;31.60;20.40;;;;;;5006903;28;82216;-88
2021/03/20 12:07:47;;;;;;;5.20;4.90;;;31.70;20.20;;;;;;5016506;28;82036;-88
2021/03/20 12:10:23;;;;;;;4.35;4.15;;;31.70;20.80;;;;;;5016136;28;81460;-87
2021/03/20 12:12:57;;;;;;;4.60;4.30;;;31.80;19.70;;;;;;5007108;28;81172;-87
2021/03/20 12:15:31;;;;;;;6.07;5.68;;;31.10;20.80;;;;;;5014154;28;81376;-87
2021/03/20 12:17:59;;;;;;;4.88;4.57;;;29.80;20.70;;;;;;5012082;28;82676;-88
2021/03/20 12:20:43;;;;;;;4.65;4.43;;;29.10;21.20;;;;;;5036665;28;83344;-88
2021/03/20 12:23:23;;;;;;;4.43;4.22;;;29.10;20.50;;;;;;5088001;28;20121;-87
2021/03/20 12:25:55;;;;;;;6.95;6.35;;;29.50;20.20;;;;;;5090238;28;20032;-87
2021/03/20 12:28:43;;;;;;;4.68;4.38;;;29.70;20.80;;;;;;5089414;28;20045;-88
2021/03/20 12:31:08;;;;;;;5.00;4.68;;;29.60;20.10;;;;;;5093384;28;20044;-88
2021/03/20 12:33:44;;;;;;;5.15;4.85;;;29.70;21.10;;;;;;5080232;28;20040;-87
2021/03/20 12:36:24;;;;;;;5.53;4.93;;;30.00;20.70;;;;;;5081915;28;20111;-87
2021/03/20 12:38:50;;;;;;;4.57;4.28;;;30.50;20.50;;;;;;5090900;28;20079;-88
2021/03/20 12:41:18;;;;;;;4.80;4.50;;;30.30;20.90;;;;;;5088190;28;20072;-87
2021/03/20 12:44:01;;;;;;;4.50;4.20;;;29.60;20.90;;;;;;5095032;28;20044;-88
2021/03/20 12:46:26;;;;;;;4.60;4.30;;;29.70;20.90;;;;;;5089845;28;20048;-88
2021/03/20 12:48:52;;;;;;;4.45;4.15;;;29.80;21.30;;;;;;5091144;28;20462;-88
2021/03/20 12:51:22;;;;;;;4.70;4.40;;;29.30;20.90;;;;;;5087937;28;20136;-87
2021/03/20 12:53:48;;;;;;;;;;;28.40;21.30;;;;;;5087413;28;20059;-87
2021/03/20 12:56:15;;;;;;;5.10;4.70;;;28.20;21.10;;;;;;5085991;28;19917;-88
2021/03/20 12:58:40;;;;;;;4.80;4.50;;;28.30;21.60;;;;;;5089971;28;20115;-88
2021/03/20 13:01:06;;;;;;;4.80;4.50;;;28.50;21.00;;;;;;5083060;28;20112;-87
2021/03/20 13:03:33;;;;;;;4.72;4.43;;;28.20;21.30;;;;;;5090443;28;20057;-88
2021/03/20 13:05:59;;;;;;;4.63;4.32;;;27.90;20.70;;;;;;5085686;28;20080;-88
2021/03/20 13:08:26;;;;;;;4.68;4.38;;;27.80;21.40;;;;;;5089136;28;20068;-87
2021/03/20 13:10:54;;;;;;;5.30;5.00;;;27.50;21.30;;;;;;5090364;28;20071;-88
2021/03/20 13:13:20;;;;;;;4.90;4.60;;;27.50;21.50;;;;;;5086540;28;20198;-87
2021/03/20 13:15:49;;;;;;;4.53;4.22;;;27.70;21.20;;;;;;5088035;28;20514;-88
2021/03/20 13:18:14;;;;;;;4.80;4.50;;;27.70;20.90;;;;;;5085252;28;20052;-86
2021/03/20 13:20:40;;;;;;;4.85;4.53;;;27.40;21.30;;;;;;5086826;28;20044;-86
2021/03/20 13:23:06;;;;;;;5.10;4.80;;;27.20;21.50;;;;;;5087219;28;20040;-86
2021/03/20 13:25:38;;;;;;;5.18;4.70;;;26.70;21.80;;;;;;5088531;28;20106;-86
2021/03/20 13:28:06;;;;;;;4.90;4.50;;;26.90;21.80;;;;;;5092781;28;20086;-90
2021/03/20 13:30:37;;;;;;;5.50;5.10;;;26.40;21.60;;;;;;5092503;28;20037;-90
2021/03/20 13:33:04;;;;;;;4.30;4.07;;;25.40;22.10;;;;;;5089339;28;20740;-89
2021/03/20 13:35:33;;;;;;;5.35;4.88;;;24.70;22.60;;;;;;5082414;28;20132;-89
2021/03/20 13:37:59;;;;;;;5.30;4.88;;;24.50;22.40;;;;;;5077334;28;20496;-89
2021/03/20 13:40:28;;;;;;;5.25;4.85;;;24.90;22.30;;;;;;5074625;28;20131;-90
2021/03/20 13:42:55;;;;;;;5.00;4.60;;;25.10;22.00;;;;;;5090563;28;20036;-90
2021/03/20 13:45:24;;;;;;;4.80;4.50;;;24.70;22.30;;;;;;5085794;28;20064;-90
2021/03/20 13:47:49;;;;;;;5.43;5.03;;;24.40;21.80;;;;;;5087284;28;20044;-92
2021/03/20 13:50:17;;;;;;;4.82;4.53;;;23.60;22.50;;;;;;5081454;28;20037;-90
2021/03/20 13:52:42;;;;;;;4.93;4.63;;;23.70;22.10;;;;;;5075789;28;20065;-89
2021/03/20 13:55:09;;;;;;;4.75;4.45;;;23.90;22.30;;;;;;5094403;28;20068;-88
2021/03/20 13:57:35;;;;;;;5.30;4.90;;;23.80;22.20;;;;;;5084116;28;20036;-89
2021/03/20 14:00:03;;;;;;;5.05;4.65;;;22.50;23.10;;;;;;5085955;28;20124;-89
2021/03/20 14:02:28;;;;;;;5.10;4.72;;;22.50;23.50;;;;;;5071097;28;20583;-90
2021/03/20 14:04:55;;;;;;;5.63;5.20;;;22.30;23.20;;;;;;5080006;28;20128;-89
2021/03/20 14:07:36;;;;;;;5.03;4.72;;;22.20;23.30;;;;;;5086226;28;20084;-89
2021/03/20 14:10:15;;;;;;;5.55;5.15;;;22.10;24.30;;;;;;5086242;28;20061;-90
2021/03/20 14:12:42;;;;;;;5.07;4.78;;;22.10;23.20;;;;;;5086834;28;20045;-90
2021/03/20 14:15:11;;;;;;;5.22;4.93;;;22.30;23.10;;;;;;5074888;28;20131;-89
2021/03/20 14:17:37;;;;;;;5.57;5.13;;;22.40;22.90;;;;;;5082699;28;20492;-88
2021/03/20 14:20:09;;;;;;;5.03;4.63;;;22.30;22.90;;;;;;5086033;28;20033;-87
2021/03/20 14:22:35;;;;;;;5.30;4.90;;;22.10;23.00;;;;;;5085193;28;20516;-88
2021/03/20 14:25:00;;;;;;;5.45;4.95;;;22.20;23.10;;;;;;5079416;28;20834;-89
2021/03/20 14:27:26;;;;;;;5.45;5.15;;;21.80;23.40;;;;;;5079547;28;20058;-89
2021/03/20 14:29:53;;;;;;;5.53;5.05;;;21.30;24.00;;;;;;5065586;28;20120;-88
2021/03/20 14:32:19;;;;;;;5.30;4.93;;;21.30;24.30;;;;;;5071970;28;20040;-89
2021/03/20 14:34:45;;;;;;;5.45;5.00;;;20.30;24.40;;;;;;5083832;28;20097;-88
2021/03/20 14:37:10;;;;;;;5.50;5.10;;;19.70;25.20;;;;;;5081404;28;20042;-89
2021/03/20 14:39:37;;;;;;;5.28;4.88;;;18.20;25.80;;;;;;5075601;28;20094;-88
2021/03/20 14:42:03;;;;;;;4.85;4.50;;;17.20;26.60;;;;;;5089500;28;20123;-89
2021/03/20 14:44:28;;;;;;;5.43;5.03;;;16.00;27.20;;;;;;5069928;28;20835;-88
2021/03/20 14:46:54;;;;;;;4.95;4.55;;;15.30;27.90;;;;;;5083964;28;20048;-88
2021/03/20 14:49:20;;;;;;;5.50;5.00;;;15.30;28.20;;;;;;5068870;28;20463;-88
2021/03/20 14:51:46;;;;;;;5.18;4.78;;;15.60;28.00;;;;;;5065704;28;20042;-88
2021/03/20 14:54:11;;;;;;;5.30;4.80;;;15.90;28.20;;;;;;5067859;28;20041;-88
2021/03/20 14:56:38;;;;;;;5.43;4.93;;;16.40;28.00;;;;;;5067638;28;20121;-89
2021/03/20 14:59:04;;;;;;;4.85;4.45;;;16.60;27.60;;;;;;5067306;28;20389;-89
2021/03/20 15:01:29;;;;;;;4.90;4.50;;;15.70;27.10;;;;;;5064424;28;20044;-88
2021/03/20 15:03:57;;;;;;;5.93;5.43;;;14.80;27.30;;;;;;5069534;28;20045;-89
2021/03/20 15:06:23;;;;;;;6.00;5.40;;;14.00;28.30;;;;;;5082832;28;20025;-88
2021/03/20 15:08:50;;;;;;;5.15;4.75;;;13.30;30.00;;;;;;5071106;28;20056;-88
2021/03/20 15:11:16;;;;;;;5.60;5.10;;;12.90;29.10;;;;;;5064235;28;20040;-88
2021/03/20 15:13:43;;;;;;;4.70;4.28;;;12.90;29.90;;;;;;5083913;28;20115;-88
2021/03/20 15:16:08;;;;;;;5.10;4.70;;;12.90;29.10;;;;;;5076731;28;20763;-87
2021/03/20 15:18:39;;;;;;;5.13;4.60;;;13.00;28.80;;;;;;5077328;28;20041;-86
2021/03/20 15:21:08;;;;;;;4.88;4.47;;;13.10;28.50;;;;;;5077733;28;20147;-86
2021/03/20 15:23:39;;;;;;;4.78;4.45;;;13.10;28.80;;;;;;5075773;28;20458;-85
2021/03/20 15:26:07;;;;;;;5.70;5.22;;;13.20;28.50;;;;;;5074035;28;20120;-86
2021/03/20 15:28:33;;;;;;;4.85;4.45;;;13.30;28.30;;;;;;5069219;28;20108;-86
2021/03/20 15:31:00;;;;;;;6.32;5.10;;;13.30;28.40;;;;;;5073540;28;20107;-87
2021/03/20 15:33:27;;;;;;;8.73;7.30;;;13.20;28.30;;;;;;5079333;28;20033;-86
2021/03/20 15:35:53;;;;;;;7.78;6.97;;;13.10;28.80;;;;;;5069822;28;20060;-85
2021/03/20 15:38:19;;;;;;;7.22;6.47;;;13.10;28.40;;;;;;5084162;28;20052;-85
2021/03/20 15:40:51;;;;;;;7.63;6.30;;;12.80;28.90;;;;;;5079622;28;20036;-87
2021/03/20 15:43:20;;;;;;;10.80;7.55;;;12.80;28.90;;;;;;5074825;28;20033;-86
2021/03/20 15:45:47;;;;;;;8.15;6.68;;;12.50;28.90;;;;;;5086121;28;20048;-88
2021/03/20 15:48:12;;;;;;;6.55;5.90;;;12.20;28.70;;;;;;5091286;28;20044;-88
2021/03/20 15:50:39;;;;;;;5.75;5.13;;;11.80;29.00;;;;;;5080247;28;20174;-89
2021/03/20 15:53:06;;;;;;;10.60;8.15;;;11.40;29.40;;;;;;5065404;28;20037;-88
2021/03/20 15:55:34;;;;;;;8.05;5.55;;;10.80;29.90;;;;;;5078112;28;20393;-87
2021/03/20 15:58:01;;;;;;;4.70;4.30;;;10.50;29.90;;;;;;5073840;28;20051;-87
2021/03/20 16:00:27;;;;;;;4.45;4.13;;;10.00;30.00;;;;;;5080172;28;20160;-87
2021/03/20 16:02:53;;;;;;;6.72;5.35;;;9.70;31.00;;;;;;5075096;28;20021;-87
2021/03/20 16:05:19;;;;;;;6.35;5.07;;;9.40;32.30;;;;;;5070200;28;20042;-87
2021/03/20 16:07:45;;;;;;;5.32;4.82;;;9.00;32.60;;;;;;5071901;28;20052;-89
2021/03/20 16:10:25;;;;;;;5.03;4.63;;;8.70;33.20;;;;;;5072676;28;20053;-87
2021/03/20 16:12:51;;;;;;;4.72;4.35;;;8.50;32.80;;;;;;5069763;28;20051;-87
2021/03/20 16:15:17;;;;;;;5.05;4.55;;;8.30;33.10;;;;;;5076747;28;20436;-90
2021/03/20 16:17:43;;;;;;;5.22;4.72;;;8.20;33.40;;;;;;5071722;28;20037;-86
2021/03/20 16:20:11;;;;;;;4.78;4.38;;;8.10;34.60;;;;;;5074980;28;20041;-86
2021/03/20 16:22:37;;;;;;;5.47;5.00;;;8.00;34.90;;;;;;5077278;28;20069;-90
2021/03/20 16:25:04;;;;;;;4.20;3.83;;;8.00;34.30;;;;;;5073925;28;20065;-89
2021/03/20 16:27:30;;;;;;;4.55;4.03;;;8.00;34.60;;;;;;5084739;28;20037;-89
2021/03/20 16:29:56;;;;;;;4.18;3.88;;;7.90;34.40;;;;;;5119415;28;20071;-87
2021/03/20 16:32:25;;;;;;;5.43;4.93;;;7.80;34.60;;;;;;5094976;28;20033;-86
2021/03/20 16:34:51;;;;;;;4.90;4.40;;;7.60;34.90;;;;;;5102951;28;20057;-87
2021/03/20 16:37:16;;;;;;;4.78;4.38;;;7.50;35.30;;;;;;5107368;28;20037;-89
2021/03/20 16:39:42;;;;;;;5.53;4.45;;;7.30;35.50;;;;;;5090321;28;20071;-88
2021/03/20 16:42:08;;;;;;;5.18;4.57;;;7.20;35.80;;;;;;5097333;28;20038;-86
2021/03/20 16:44:34;;;;;;;4.97;4.53;;;7.10;35.70;;;;;;5087264;28;20034;-87
2021/03/20 16:47:00;;;;;;;4.90;4.40;;;7.10;36.10;;;;;;5101850;28;20061;-89
2021/03/20 16:49:50;;;;;;;5.97;5.32;;;6.90;36.20;;;;;;5083507;28;20036;-87
2021/03/20 16:52:15;;;;;;;5.18;4.68;;;6.80;36.80;;;;;;5083857;28;20065;-88
2021/03/20 16:54:41;;;;;;;5.30;4.60;;;6.60;37.20;;;;;;5068737;28;20354;-88
2021/03/20 16:57:07;;;;;;;5.75;5.25;;;6.50;37.30;;;;;;5067267;28;20037;-88
2021/03/20 16:59:33;;;;;;;6.88;4.95;;;6.30;37.70;;;;;;5086317;28;20044;-88
2021/03/20 17:01:59;;;;;;;6.07;4.70;;;6.10;37.80;;;;;;5097855;28;20056;-87
2021/03/20 17:04:24;;;;;;;5.68;4.60;;;6.00;38.70;;;;;;5097398;28;20105;-88
2021/03/20 17:06:52;;;;;;;5.63;5.00;;;5.80;38.60;;;;;;5092051;28;20049;-88
2021/03/20 17:09:19;;;;;;;5.22;4.82;;;5.60;39.10;;;;;;5105017;28;20133;-84
2021/03/20 17:11:48;;;;;;;4.70;4.40;;;5.50;39.10;;;;;;5104263;28;20052;-86
2021/03/20 17:14:23;;;;;;;4.95;4.55;;;5.10;39.10;;;;;;5144395;22;20033;-92
2021/03/20 17:16:53;;;;;;;7.07;4.10;;;;;;;;;;5165655;22;21289;-91
2021/03/20 17:19:19;;;;;;;4.30;3.90;;;;;;;;;;5398034;22;19992;-91
2021/03/20 17:21:45;;;;;;;4.63;4.22;;;;;;;;;;5060624;28;20045;-91
2021/03/20 17:24:15;;;;;;;4.78;4.30;;;3.90;43.00;;;;;;5069945;28;20022;-92
2021/03/20 17:26:41;;;;;;;5.35;4.72;;;;;;;;;;5059386;28;20529;-91
2021/03/20 17:29:07;;;;;;;5.13;4.38;;;;;;;;;;5044791;28;20042;-90
2021/03/20 17:31:33;;;;;;;4.88;4.30;;;;;;;;;;5044285;28;20034;-88
2021/03/20 17:34:00;;;;;;;6.53;4.00;;;;;;;;;;5050236;28;20073;-87
2021/03/20 17:36:25;;;;;;;5.97;4.03;;;2.90;45.50;;;;;;5049368;28;20099;-88
2021/03/20 17:38:51;;;;;;;6.25;4.10;;;2.60;46.70;;;;;;5057632;28;20541;-86
2021/03/20 17:41:17;;;;;;;4.82;4.22;;;;;;;;;;5052463;28;20046;-89
2021/03/20 17:43:43;;;;;;;5.50;4.05;;;;;;;;;;5062425;28;20069;-90
2021/03/20 17:46:16;;;;;;;6.03;4.25;;;2.30;48.00;;;;;;5061096;28;20932;-88
2021/03/20 17:48:43;;;;;;;5.30;4.03;;;2.20;47.90;;;;;;5053366;28;20048;-87
2021/03/20 17:51:09;;;;;;;6.32;4.53;;;2.10;48.50;;;;;;5061247;28;20037;-89
2021/03/20 17:53:35;;;;;;;5.30;4.63;;;;;;;;;;5051362;28;20247;-88
2021/03/20 17:56:01;;;;;;;5.75;4.72;;;;;;;;;;5048196;28;20044;-90
2021/03/20 17:58:28;;;;;;;7.03;5.13;;;1.80;48.50;;;;;;5054705;28;20503;-89
2021/03/20 18:00:54;;;;;;;7.15;4.93;;;1.80;49.00;;;;;;5042585;28;20454;-89
2021/03/20 18:03:20;;;;;;;5.85;4.57;;;;;;;;;;5049566;28;20068;-88
2021/03/20 18:05:46;;;;;;;6.88;4.75;;;1.70;48.00;;;;;;5033224;28;20034;-87
2021/03/20 18:08:12;;;;;;;8.07;4.80;;;1.70;48.80;;;;;;5047442;28;20169;-88
2021/03/20 18:10:41;;;;;;;8.00;5.05;;;1.60;49.30;;;;;;5045251;28;20116;-89
2021/03/20 18:13:14;;;;;;;7.40;5.72;;;1.60;50.10;;;;;;5046090;28;20717;-89
2021/03/20 18:15:40;;;;;;;6.80;5.15;;;;;;;;;;5041652;28;20568;-88
2021/03/20 18:18:06;;;;;;;7.13;6.40;;;;;;;;;;5044568;28;20517;-90
2021/03/20 18:20:32;;;;;;;7.88;6.05;;;1.40;52.40;;;;;;5030920;28;20904;-87
2021/03/20 18:22:58;;;;;;;9.45;6.25;;;1.30;52.40;;;;;;5053556;28;20093;-86
2021/03/20 18:25:26;;;;;;;7.80;5.82;;;1.20;52.90;;;;;;5050436;28;20121;-85
2021/03/20 18:27:53;;;;;;;6.35;4.53;;;1.20;52.40;;;;;;5051230;28;20112;-85
2021/03/20 18:30:29;;;;;;;8.40;4.82;;;1.10;52.50;;;;;;5047467;28;20097;-86
2021/03/20 18:32:55;;;;;;;6.80;4.75;;;1.10;53.30;;;;;;5050516;28;20077;-86
2021/03/20 18:35:21;;;;;;;6.75;5.03;;;1.00;53.80;;;;;;5044550;28;20046;-86
2021/03/20 18:37:48;;;;;;;6.45;4.90;;;1.00;54.10;;;;;;5040355;28;20489;-86
2021/03/20 18:40:18;;;;;;;5.78;4.30;;;0.90;54.60;;;;;;5044794;28;20037;-87
2021/03/20 18:42:44;;;;;;;7.10;4.28;;;0.90;54.00;;;;;;5044697;28;20034;-86
2021/03/20 18:45:12;;;;;;;6.45;4.57;;;0.80;53.80;;;;;;5044093;28;20076;-86
2021/03/20 18:47:38;;;;;;;5.78;4.63;;;0.80;53.70;;;;;;5044553;28;20037;-85
2021/03/20 18:50:07;;;;;;;7.32;5.75;;;0.70;54.90;;;;;;5042500;28;20044;-87
2021/03/20 18:52:32;;;;;;;9.38;5.40;;;0.70;54.80;;;;;;5047825;28;20084;-85
2021/03/20 18:54:58;;;;;;;7.57;5.22;;;0.70;54.20;;;;;;5045426;28;20073;-86
2021/03/20 18:57:24;;;;;;;6.38;5.20;;;0.60;55.90;;;;;;5042029;28;20102;-84
2021/03/20 18:59:52;;;;;;;7.38;5.13;;;0.60;55.20;;;;;;5044641;28;20046;-87
2021/03/20 19:02:18;;;;;;;6.05;5.35;;;0.50;55.60;;;;;;5048832;28;20060;-86
2021/03/20 19:04:44;;;;;;;7.72;5.35;;;0.50;56.00;;;;;;5046563;28;20136;-85
2021/03/20 19:07:11;;;;;;;8.00;4.35;;;0.50;55.80;;;;;;5050966;28;20829;-85
2021/03/20 19:09:37;;;;;;;5.63;5.07;;;0.40;56.00;;;;;;5042479;28;20034;-86
2021/03/20 19:12:04;;;;;;;5.75;4.75;;;0.40;55.60;;;;;;5043829;28;20042;-86
2021/03/20 19:14:29;;;;;;;6.38;5.03;;;0.40;56.40;;;;;;5044612;28;20037;-87
2021/03/20 19:16:55;;;;;;;6.45;4.60;;;0.40;56.50;;;;;;5041600;28;20087;-86
2021/03/20 19:19:21;;;;;;;6.18;4.78;;;0.30;57.00;;;;;;5041407;28;20050;-86
2021/03/20 19:21:47;;;;;;;5.60;4.75;;;0.30;56.80;;;;;;5043505;28;20088;-86
2021/03/20 19:24:12;;;;;;;5.63;4.60;;;0.30;56.90;;;;;;5048972;28;20038;-86
2021/03/20 19:26:39;;;;;;;7.68;5.07;;;0.30;57.30;;;;;;5046761;28;20035;-87
2021/03/20 19:29:05;;;;;;;7.32;5.07;;;0.30;57.10;;;;;;5042801;28;20115;-86
2021/03/20 19:31:32;;;;;;;5.97;5.30;;;0.30;57.20;;;;;;5043988;28;20038;-86
2021/03/20 19:33:59;;;;;;;8.63;5.55;;;0.30;56.70;;;;;;5042951;28;20115;-88
2021/03/20 19:36:26;;;;;;;9.82;6.18;;;0.30;56.90;;;;;;5043054;28;20043;-86
2021/03/20 19:38:52;;;;;;;6.07;5.13;;;0.30;58.10;;;;;;5039810;28;20544;-86
2021/03/20 19:41:18;;;;;;;8.98;4.75;;;0.30;58.40;;;;;;5048382;28;20049;-87
2021/03/20 19:43:45;;;;;;;7.57;5.38;;;0.20;58.90;;;;;;5042557;28;20045;-85
2021/03/20 19:46:36;;;;;;;6.65;5.20;;;0.20;58.80;;;;;;5045889;28;20092;-85
2021/03/20 19:49:05;;;;;;;6.97;5.18;;;0.10;59.10;;;;;;5040854;28;20042;-86
2021/03/20 19:51:31;;;;;;;7.13;5.53;;;0.10;58.60;;;;;;5035798;28;20058;-85
2021/03/20 19:53:58;;;;;;;6.68;5.35;;;0.10;59.40;;;;;;5045781;28;20096;-85
2021/03/20 19:56:25;;;;;;;7.82;5.63;;;0.10;59.20;;;;;;5048544;28;20873;-85
2021/03/20 19:58:50;;;;;;;7.10;4.88;;;0.00;60.20;;;;;;5045333;28;20041;-86
2021/03/20 20:01:21;;;;;;;6.47;4.82;;;0.00;59.50;;;;;;5041804;28;20120;-85
2021/03/20 20:03:47;;;;;;;5.53;4.80;;;0.00;59.10;;;;;;5043858;28;20112;-85
2021/03/20 20:06:15;;;;;;;6.65;5.13;;;0.00;59.40;;;;;;5045984;28;20053;-86
2021/03/20 20:08:41;;;;;;;7.50;5.15;;;0.00;60.20;;;;;;5044064;28;20056;-85
2021/03/20 20:11:08;;;;;;;7.35;5.10;;;-0.10;59.00;;;;;;5048412;28;20053;-86
2021/03/20 20:13:34;;;;;;;6.75;4.75;;;-0.10;59.70;;;;;;5047748;28;20093;-85
2021/03/20 20:16:02;;;;;;;7.95;4.95;;;-0.10;60.40;;;;;;5047270;28;20041;-85
2021/03/20 20:18:43;;;;;;;6.70;4.65;;;-0.20;60.40;;;;;;5035836;28;20044;-84
2021/03/20 20:21:10;;;;;;;;;;;-0.20;60.50;;;;;;5046817;28;20136;-85
2021/03/20 20:23:36;;;;;;;6.22;4.53;;;-0.30;61.00;;;;;;5042833;28;19922;-85
2021/03/20 20:26:02;;;;;;;6.43;4.97;;;-0.30;60.40;;;;;;5044106;28;20056;-84
2021/03/20 20:28:30;;;;;;;6.95;5.20;;;-0.40;60.30;;;;;;5043751;28;20037;-86
2021/03/20 20:30:58;;;;;;;8.95;5.32;;;-0.40;60.70;;;;;;5048321;28;20091;-85
2021/03/20 20:33:25;;;;;;;8.55;5.88;;;-0.40;60.70;;;;;;5049604;28;20030;-86
2021/03/20 20:35:51;;;;;;;7.05;5.40;;;-0.40;60.90;;;;;;5058617;28;20037;-88
2021/03/20 20:38:17;;;;;;;8.50;5.43;;;-0.40;61.50;;;;;;5063215;28;20022;-85
2021/03/20 20:40:44;;;;;;;6.82;5.47;;;-0.50;61.80;;;;;;5064219;28;20025;-85
2021/03/20 20:43:14;;;;;;;8.02;5.30;;;-0.50;61.90;;;;;;5058910;28;20414;-87
2021/03/20 20:45:48;;;;;;;7.63;5.43;;;-0.50;61.30;;;;;;5063794;28;20045;-88
2021/03/20 20:48:15;;;;;;;7.15;4.93;;;-0.50;62.30;;;;;;5059295;28;20054;-88
2021/03/20 20:50:41;;;;;;;9.48;5.30;;;-0.50;63.60;;;;;;5044360;28;20756;-87
2021/03/20 20:53:06;;;;;;;5.70;5.10;;;-0.60;64.60;;;;;;5042241;28;20045;-88
2021/03/20 20:55:32;;;;;;;6.47;5.43;;;-0.60;65.10;;;;;;5042713;28;20474;-87
2021/03/20 20:57:58;;;;;;;8.32;5.20;;;-0.70;65.00;;;;;;5044438;28;20057;-88
2021/03/20 21:00:29;;;;;;;7.25;4.80;;;-0.70;65.90;;;;;;5042970;28;20050;-87
2021/03/20 21:02:55;;;;;;;5.65;4.85;;;-0.70;66.50;;;;;;5043745;28;20042;-88
2021/03/20 21:05:22;;;;;;;6.85;4.70;;;-0.70;67.10;;;;;;5046385;28;20387;-87
2021/03/20 21:07:48;;;;;;;6.95;4.97;;;-0.70;68.10;;;;;;5047146;28;20065;-87
2021/03/20 21:10:16;;;;;;;7.40;5.18;;;-0.60;67.80;;;;;;5045701;28;20050;-87
2021/03/20 21:12:41;;;;;;;7.32;5.55;;;-0.60;68.70;;;;;;5044559;28;20077;-87
2021/03/20 21:15:09;;;;;;;6.95;4.63;;;-0.50;69.30;;;;;;5043290;28;20073;-88
2021/03/20 21:17:35;;;;;;;8.73;5.32;;;-0.40;69.70;;;;;;5039342;28;20068;-85
2021/03/20 21:20:03;;;;;;;8.13;6.25;;;-0.40;71.40;;;;;;5047836;28;20058;-86
2021/03/20 21:22:30;;;;;;;7.50;5.85;;;-0.40;72.00;;;;;;5039932;28;20045;-85
2021/03/20 21:24:56;;;;;;;14.13;5.97;;;-0.30;73.40;;;;;;5044735;28;20038;-85
2021/03/20 21:27:24;;;;;;;10.10;6.40;;;-0.30;76.00;;;;;;5034581;28;20501;-87
2021/03/20 21:29:51;;;;;;;11.25;6.30;;;-0.30;76.50;;;;;;5039310;28;20084;-86
2021/03/20 21:32:16;;;;;;;8.90;6.45;;;-0.30;77.80;;;;;;5038939;28;20061;-86
2021/03/20 21:34:42;;;;;;;10.75;7.32;;;-0.30;78.20;;;;;;5045363;28;20046;-86
2021/03/20 21:37:08;;;;;;;10.68;7.22;;;-0.30;79.20;;;;;;5046574;28;20045;-85
2021/03/20 21:39:33;;;;;;;11.00;7.55;;;-0.30;78.50;;;;;;5044721;28;20038;-86
2021/03/20 21:42:05;;;;;;;13.07;7.22;;;-0.30;78.90;;;;;;5040640;28;20093;-88
2021/03/20 21:44:31;;;;;;;11.82;7.95;;;-0.20;78.90;;;;;;5043401;28;20099;-86
2021/03/20 21:46:57;;;;;;;12.65;7.28;;;-0.10;79.00;;;;;;5039723;28;20042;-85
2021/03/20 21:49:23;;;;;;;10.85;6.82;;;0.00;81.40;;;;;;5034061;28;20508;-85
2021/03/20 21:51:48;;;;;;;11.95;7.05;;;0.00;81.80;;;;;;5042711;28;20066;-84
2021/03/20 21:54:14;;;;;;;10.20;7.35;;;0.00;81.20;;;;;;5036378;28;20482;-88
2021/03/20 21:56:42;;;;;;;8.23;6.30;;;0.00;80.20;;;;;;5024578;28;20054;-87
2021/03/20 21:59:07;;;;;;;13.82;7.93;;;0.00;78.70;;;;;;5031715;28;20069;-88
2021/03/20 22:01:33;;;;;;;9.80;6.07;;;0.00;78.70;;;;;;5037316;28;20085;-88
2021/03/20 22:04:00;;;;;;;12.32;6.95;;;0.00;79.00;;;;;;5040859;28;20038;-89
2021/03/20 22:06:26;;;;;;;10.07;6.63;;;0.00;79.70;;;;;;5042421;28;20038;-88
2021/03/20 22:08:52;;;;;;;11.52;6.53;;;0.00;79.40;;;;;;5041915;28;20042;-88
2021/03/20 22:11:18;;;;;;;7.70;5.13;;;0.00;78.50;;;;;;5039431;28;20069;-88
2021/03/20 22:13:44;;;;;;;8.73;6.45;;;0.00;78.90;;;;;;5041871;28;20069;-87
2021/03/20 22:16:10;;;;;;;7.88;5.95;;;0.10;78.40;;;;;;5037643;28;20418;-87
2021/03/20 22:18:36;;;;;;;10.88;6.22;;;0.10;77.10;;;;;;5029145;28;20074;-85
2021/03/20 22:21:03;;;;;;;8.13;6.38;;;0.20;76.40;;;;;;5044094;28;20066;-87
2021/03/20 22:23:28;;;;;;;8.18;5.88;;;0.20;76.30;;;;;;5044987;28;20081;-87